createdAt,value
2019-02-28T00:08:13.015Z,10.80
2019-02-28T00:18:18.814Z,10.03
2019-02-28T00:28:25.802Z,11.30
2019-02-28T00:38:32.748Z,9.63
2019-02-28T00:48:38.579Z,10.53
2019-02-28T00:58:44.301Z,10.83
2019-02-28T01:08:50.084Z,9.80
2019-02-28T01:18:55.687Z,11.07
2019-02-28T01:29:02.006Z,11.23
2019-02-28T01:39:08.407Z,10.50
2019-02-28T01:49:14.216Z,11.40
2019-02-28T01:59:21.652Z,11.70
2019-02-28T02:09:27.136Z,10.97
2019-02-28T02:19:32.740Z,12.13
2019-02-28T02:29:38.440Z,13.03
2019-02-28T02:39:43.941Z,12.20
2019-02-28T02:49:56.169Z,13.53
2019-02-28T02:59:56.786Z,12.93
2019-02-28T03:10:02.177Z,14.50
2019-02-28T03:20:10.306Z,13.90
2019-02-28T03:30:28.705Z,14.70
2019-02-28T03:40:25.413Z,14.77
2019-02-28T03:50:31.018Z,15.93
2019-02-28T04:00:36.723Z,15.97
2019-02-28T04:10:42.217Z,17.23
2019-02-28T04:20:47.712Z,20.00
2019-02-28T04:30:53.210Z,20.97
2019-02-28T04:40:59.938Z,22.70
2019-02-28T04:51:06.603Z,22.93
2019-02-28T05:01:13.525Z,23.43
2019-02-28T05:11:19.079Z,23.47
2019-02-28T05:21:24.667Z,25.63
2019-02-28T05:31:30.374Z,27.60
2019-02-28T05:41:36.349Z,30.63
2019-02-28T05:51:41.991Z,32.17
2019-02-28T06:01:47.773Z,32.00
2019-02-28T06:11:53.389Z,32.40
2019-02-28T06:21:59.461Z,33.00
2019-02-28T06:32:05.832Z,36.50
2019-02-28T06:42:12.540Z,36.60
2019-02-28T06:52:18.343Z,40.50
2019-02-28T07:02:24.263Z,39.57
2019-02-28T07:12:30.554Z,42.00
2019-02-28T07:22:36.255Z,41.90
2019-02-28T07:32:41.857Z,43.30
2019-02-28T07:42:47.564Z,51.47
2019-02-28T07:52:53.295Z,48.03
2019-02-28T08:02:58.755Z,48.43
2019-02-28T08:13:04.352Z,41.67
2019-02-28T08:23:09.841Z,48.97
2019-02-28T08:33:16.322Z,50.83
2019-02-28T08:43:27.168Z,34.60
2019-02-28T08:53:29.932Z,51.10
2019-02-28T09:03:36.991Z,48.37
2019-02-28T09:13:43.644Z,56.40
2019-02-28T09:23:49.607Z,50.83
2019-02-28T09:33:55.437Z,44.27
2019-02-28T09:44:03.507Z,53.60
2019-02-28T09:54:09.143Z,49.80
2019-02-28T10:04:14.863Z,50.00
2019-02-28T10:14:20.556Z,49.93
2019-02-28T10:24:28.457Z,52.03
2019-02-28T10:34:35.349Z,54.73
2019-02-28T10:44:40.828Z,50.63
2019-02-28T10:54:48.698Z,52.50
2019-02-28T11:04:53.965Z,50.00
2019-02-28T11:14:59.566Z,46.30
2019-02-28T11:25:08.342Z,48.10
2019-02-28T11:35:13.937Z,43.77
2019-02-28T11:45:28.628Z,43.80
2019-02-28T11:55:35.169Z,46.33
2019-02-28T12:05:41.077Z,51.97
2019-02-28T12:15:47.298Z,41.07
2019-02-28T12:25:53.566Z,41.30
2019-02-28T12:36:02.206Z,41.57
2019-02-28T12:46:11.268Z,42.67
2019-02-28T12:56:17.866Z,39.00
2019-02-28T13:06:24.556Z,35.53
2019-02-28T13:16:30.288Z,39.70
2019-02-28T13:26:36.000Z,38.90
2019-02-28T13:36:41.901Z,35.67
2019-02-28T13:46:47.495Z,33.07
2019-02-28T13:56:52.997Z,36.43
2019-02-28T14:06:58.829Z,38.10
2019-02-28T14:17:06.568Z,33.97
2019-02-28T14:27:12.750Z,38.57
2019-02-28T14:37:19.603Z,30.97
2019-02-28T14:47:28.486Z,33.70
2019-02-28T14:57:33.963Z,26.27
2019-02-28T15:07:41.934Z,29.67
2019-02-28T15:17:50.625Z,26.87
2019-02-28T15:27:57.424Z,25.10
2019-02-28T15:38:05.931Z,23.33
2019-02-28T15:48:10.405Z,29.23
2019-02-28T15:58:16.763Z,34.73
2019-02-28T16:08:22.882Z,34.63
2019-02-28T16:18:28.367Z,22.47
2019-02-28T16:28:34.565Z,25.77
2019-02-28T16:38:42.460Z,22.97
2019-02-28T16:48:47.522Z,20.00
2019-02-28T16:58:53.758Z,18.93
2019-02-28T17:09:02.202Z,20.47
2019-02-28T17:19:09.444Z,18.30
2019-02-28T17:29:21.610Z,18.43
2019-02-28T17:39:26.808Z,18.13
2019-02-28T17:50:08.299Z,20.73
2019-02-28T18:00:29.267Z,19.83
2019-02-28T18:10:46.812Z,16.53
2019-02-28T18:21:30.682Z,19.23
2019-02-28T18:31:36.349Z,24.50
2019-02-28T18:41:43.110Z,31.07
2019-02-28T18:51:48.875Z,21.57
2019-02-28T19:01:54.668Z,19.63
2019-02-28T19:12:00.218Z,19.53
2019-02-28T19:22:05.769Z,23.27
2019-02-28T19:32:12.688Z,28.27
2019-02-28T19:42:18.394Z,20.53
2019-02-28T19:52:24.096Z,25.30
2019-02-28T20:02:30.727Z,16.70
2019-02-28T20:12:36.456Z,18.10
2019-02-28T20:22:42.331Z,17.60
2019-02-28T20:32:48.648Z,20.77
2019-02-28T20:42:54.352Z,20.30
2019-02-28T20:53:00.058Z,19.40
2019-02-28T21:03:05.883Z,18.73
2019-02-28T21:13:11.889Z,23.37
2019-02-28T21:23:17.552Z,23.80
2019-02-28T21:33:23.148Z,27.20
2019-02-28T21:43:28.918Z,30.47
2019-02-28T21:53:34.462Z,30.60
2019-02-28T22:03:40.575Z,28.40
2019-02-28T22:13:48.134Z,25.87
2019-02-28T22:23:54.173Z,23.60
2019-02-28T22:34:04.011Z,27.97
2019-02-28T22:44:09.442Z,31.10
2019-02-28T22:54:15.018Z,23.93
2019-02-28T23:04:20.584Z,22.60
2019-02-28T23:14:26.415Z,22.00
2019-02-28T23:24:32.009Z,23.30
2019-02-28T23:34:37.928Z,23.20
2019-02-28T23:44:43.619Z,28.87
2019-02-28T23:54:49.332Z,24.97
